sensor_id;sensor_type;location;lat;lon;timestamp;temperature;humidity
2453;DHT22;63678;47.994;7.854;2023-07-31T00:01:17;18.00;99.90
2453;DHT22;63678;47.994;7.854;2023-07-31T00:03:49;18.00;99.90
2453;DHT22;63678;47.994;7.854;2023-07-31T00:06:22;18.50;99.90
2453;DHT22;63678;47.994;7.854;2023-07-31T00:08:54;18.30;99.90
2453;DHT22;63678;47.994;7.854;2023-07-31T00:11:26;18.40;99.90
2453;DHT22;63678;47.994;7.854;2023-07-31T00:13:58;18.30;99.90
2453;DHT22;63678;47.994;7.854;2023-07-31T00:16:31;18.00;99.90
2453;DHT22;63678;47.994;7.854;2023-07-31T00:19:03;18.10;99.90
2453;DHT22;63678;47.994;7.854;2023-07-31T00:21:35;18.00;99.90
2453;DHT22;63678;47.994;7.854;2023-07-31T00:24:07;17.90;99.90
2453;DHT22;63678;47.994;7.854;2023-07-31T00:26:40;17.90;99.90
2453;DHT22;63678;47.994;7.854;2023-07-31T00:29:12;17.80;99.90
2453;DHT22;63678;47.994;7.854;2023-07-31T00:31:45;17.60;99.90
2453;DHT22;63678;47.994;7.854;2023-07-31T00:34:17;17.50;99.90
2453;DHT22;63678;47.994;7.854;2023-07-31T00:36:49;17.70;99.90
2453;DHT22;63678;47.994;7.854;2023-07-31T00:39:21;17.90;99.90
2453;DHT22;63678;47.994;7.854;2023-07-31T00:41:53;17.70;99.90
2453;DHT22;63678;47.994;7.854;2023-07-31T00:44:25;17.80;99.90
2453;DHT22;63678;47.994;7.854;2023-07-31T00:46:58;18.10;99.90
2453;DHT22;63678;47.994;7.854;2023-07-31T00:52:04;17.30;99.90
2453;DHT22;63678;47.994;7.854;2023-07-31T00:54:36;17.30;99.90
2453;DHT22;63678;47.994;7.854;2023-07-31T00:57:10;17.10;99.90
2453;DHT22;63678;47.994;7.854;2023-07-31T00:59:42;17.50;99.90
2453;DHT22;63678;47.994;7.854;2023-07-31T01:02:15;17.40;99.90
2453;DHT22;63678;47.994;7.854;2023-07-31T01:04:47;17.50;99.90
2453;DHT22;63678;47.994;7.854;2023-07-31T01:07:26;17.40;99.90
2453;DHT22;63678;47.994;7.854;2023-07-31T01:12:56;17.40;99.90
2453;DHT22;63678;47.994;7.854;2023-07-31T01:15:29;17.80;99.90
2453;DHT22;63678;47.994;7.854;2023-07-31T01:18:01;17.60;99.90
2453;DHT22;63678;47.994;7.854;2023-07-31T01:20:36;17.30;99.90
2453;DHT22;63678;47.994;7.854;2023-07-31T01:23:41;17.40;99.90
2453;DHT22;63678;47.994;7.854;2023-07-31T01:26:26;17.60;99.90
2453;DHT22;63678;47.994;7.854;2023-07-31T01:29:07;17.60;99.90
2453;DHT22;63678;47.994;7.854;2023-07-31T01:31:45;17.70;99.90
2453;DHT22;63678;47.994;7.854;2023-07-31T01:34:21;17.70;99.90
2453;DHT22;63678;47.994;7.854;2023-07-31T01:36:53;17.40;99.90
2453;DHT22;63678;47.994;7.854;2023-07-31T01:39:28;17.60;99.90
2453;DHT22;63678;47.994;7.854;2023-07-31T01:44:33;17.60;99.90
2453;DHT22;63678;47.994;7.854;2023-07-31T01:47:05;17.60;99.90
2453;DHT22;63678;47.994;7.854;2023-07-31T01:49:37;17.80;99.90
2453;DHT22;63678;47.994;7.854;2023-07-31T01:52:09;17.50;99.90
2453;DHT22;63678;47.994;7.854;2023-07-31T01:54:42;17.80;99.90
2453;DHT22;63678;47.994;7.854;2023-07-31T01:57:14;17.50;99.90
2453;DHT22;63678;47.994;7.854;2023-07-31T01:59:47;17.40;99.90
2453;DHT22;63678;47.994;7.854;2023-07-31T02:02:19;17.40;99.90
2453;DHT22;63678;47.994;7.854;2023-07-31T02:04:53;17.00;99.90
2453;DHT22;63678;47.994;7.854;2023-07-31T02:07:25;17.00;99.90
2453;DHT22;63678;47.994;7.854;2023-07-31T02:09:57;17.40;99.90
2453;DHT22;63678;47.994;7.854;2023-07-31T02:12:29;17.20;99.90
2453;DHT22;63678;47.994;7.854;2023-07-31T02:15:04;17.20;99.90
2453;DHT22;63678;47.994;7.854;2023-07-31T02:17:36;17.10;99.90
2453;DHT22;63678;47.994;7.854;2023-07-31T02:20:09;16.80;99.90
2453;DHT22;63678;47.994;7.854;2023-07-31T02:22:41;17.00;99.90
2453;DHT22;63678;47.994;7.854;2023-07-31T02:25:14;17.40;99.90
2453;DHT22;63678;47.994;7.854;2023-07-31T02:27:46;17.30;99.90
2453;DHT22;63678;47.994;7.854;2023-07-31T02:30:19;16.80;99.90
2453;DHT22;63678;47.994;7.854;2023-07-31T02:32:51;17.20;99.90
2453;DHT22;63678;47.994;7.854;2023-07-31T02:35:24;17.00;99.90
2453;DHT22;63678;47.994;7.854;2023-07-31T02:37:56;16.90;99.90
2453;DHT22;63678;47.994;7.854;2023-07-31T02:40:29;17.00;99.90
2453;DHT22;63678;47.994;7.854;2023-07-31T02:43:01;17.10;99.90
2453;DHT22;63678;47.994;7.854;2023-07-31T02:45:34;17.30;99.90
2453;DHT22;63678;47.994;7.854;2023-07-31T02:48:06;17.40;99.90
2453;DHT22;63678;47.994;7.854;2023-07-31T02:50:38;17.40;99.90
2453;DHT22;63678;47.994;7.854;2023-07-31T02:53:10;17.60;99.90
2453;DHT22;63678;47.994;7.854;2023-07-31T02:55:43;17.50;99.90
2453;DHT22;63678;47.994;7.854;2023-07-31T02:58:15;17.00;99.90
2453;DHT22;63678;47.994;7.854;2023-07-31T03:00:48;17.00;99.90
2453;DHT22;63678;47.994;7.854;2023-07-31T03:03:20;15.70;99.90
2453;DHT22;63678;47.994;7.854;2023-07-31T03:05:53;15.40;99.90
2453;DHT22;63678;47.994;7.854;2023-07-31T03:10:59;15.20;99.90
2453;DHT22;63678;47.994;7.854;2023-07-31T03:16:04;15.20;99.90
2453;DHT22;63678;47.994;7.854;2023-07-31T03:18:37;15.10;99.90
2453;DHT22;63678;47.994;7.854;2023-07-31T03:21:09;15.10;99.90
2453;DHT22;63678;47.994;7.854;2023-07-31T03:23:42;15.10;99.90
2453;DHT22;63678;47.994;7.854;2023-07-31T03:26:15;15.20;99.90
2453;DHT22;63678;47.994;7.854;2023-07-31T03:28:47;15.20;99.90
2453;DHT22;63678;47.994;7.854;2023-07-31T03:31:21;15.20;99.90
2453;DHT22;63678;47.994;7.854;2023-07-31T03:33:54;15.30;99.90
2453;DHT22;63678;47.994;7.854;2023-07-31T03:36:26;15.80;99.90
2453;DHT22;63678;47.994;7.854;2023-07-31T03:38:59;16.20;99.90
2453;DHT22;63678;47.994;7.854;2023-07-31T03:41:32;16.30;99.90
2453;DHT22;63678;47.994;7.854;2023-07-31T03:46:37;16.50;99.90
2453;DHT22;63678;47.994;7.854;2023-07-31T03:49:10;16.80;99.90
2453;DHT22;63678;47.994;7.854;2023-07-31T03:54:16;16.50;99.90
2453;DHT22;63678;47.994;7.854;2023-07-31T03:56:49;16.40;99.90
2453;DHT22;63678;47.994;7.854;2023-07-31T03:59:22;16.40;99.90
2453;DHT22;63678;47.994;7.854;2023-07-31T04:01:54;16.20;99.90
2453;DHT22;63678;47.994;7.854;2023-07-31T04:04:27;16.20;99.90
2453;DHT22;63678;47.994;7.854;2023-07-31T04:06:59;16.10;99.90
2453;DHT22;63678;47.994;7.854;2023-07-31T04:09:31;16.10;99.90
2453;DHT22;63678;47.994;7.854;2023-07-31T04:12:04;16.40;99.90
2453;DHT22;63678;47.994;7.854;2023-07-31T04:14:37;16.20;99.90
2453;DHT22;63678;47.994;7.854;2023-07-31T04:17:10;16.30;99.90
2453;DHT22;63678;47.994;7.854;2023-07-31T04:19:43;16.30;99.90
2453;DHT22;63678;47.994;7.854;2023-07-31T04:22:15;15.70;99.90
2453;DHT22;63678;47.994;7.854;2023-07-31T04:24:48;15.40;99.90
2453;DHT22;63678;47.994;7.854;2023-07-31T04:27:20;15.20;99.90
2453;DHT22;63678;47.994;7.854;2023-07-31T04:29:53;15.20;99.90
2453;DHT22;63678;47.994;7.854;2023-07-31T04:32:25;15.20;99.90
2453;DHT22;63678;47.994;7.854;2023-07-31T04:37:31;15.10;99.90
2453;DHT22;63678;47.994;7.854;2023-07-31T04:40:03;15.10;99.90
2453;DHT22;63678;47.994;7.854;2023-07-31T04:42:36;15.50;99.90
2453;DHT22;63678;47.994;7.854;2023-07-31T04:45:09;15.60;99.90
2453;DHT22;63678;47.994;7.854;2023-07-31T04:47:42;15.50;99.90
2453;DHT22;63678;47.994;7.854;2023-07-31T04:50:14;15.50;99.90
2453;DHT22;63678;47.994;7.854;2023-07-31T04:52:46;15.60;99.90
2453;DHT22;63678;47.994;7.854;2023-07-31T04:55:19;15.80;99.90
2453;DHT22;63678;47.994;7.854;2023-07-31T04:57:52;15.90;99.90
2453;DHT22;63678;47.994;7.854;2023-07-31T05:00:25;15.90;99.90
2453;DHT22;63678;47.994;7.854;2023-07-31T05:02:57;16.00;99.90
2453;DHT22;63678;47.994;7.854;2023-07-31T05:05:30;16.00;99.90
2453;DHT22;63678;47.994;7.854;2023-07-31T05:08:02;16.00;99.90
2453;DHT22;63678;47.994;7.854;2023-07-31T05:10:35;16.00;99.90
2453;DHT22;63678;47.994;7.854;2023-07-31T05:13:07;16.00;99.90
2453;DHT22;63678;47.994;7.854;2023-07-31T05:15:41;16.10;99.90
2453;DHT22;63678;47.994;7.854;2023-07-31T05:18:13;16.20;99.90
2453;DHT22;63678;47.994;7.854;2023-07-31T05:20:46;16.10;99.90
2453;DHT22;63678;47.994;7.854;2023-07-31T05:25:51;16.20;99.90
2453;DHT22;63678;47.994;7.854;2023-07-31T05:28:23;16.30;99.90
2453;DHT22;63678;47.994;7.854;2023-07-31T05:31:03;16.40;99.90
2453;DHT22;63678;47.994;7.854;2023-07-31T05:33:37;16.40;99.90
2453;DHT22;63678;47.994;7.854;2023-07-31T05:36:09;16.40;99.90
2453;DHT22;63678;47.994;7.854;2023-07-31T05:41:16;17.00;99.90
2453;DHT22;63678;47.994;7.854;2023-07-31T05:48:56;17.90;99.90
2453;DHT22;63678;47.994;7.854;2023-07-31T05:51:29;18.00;99.90
2453;DHT22;63678;47.994;7.854;2023-07-31T05:54:01;18.10;99.90
2453;DHT22;63678;47.994;7.854;2023-07-31T05:56:34;18.20;99.90
2453;DHT22;63678;47.994;7.854;2023-07-31T06:01:40;18.30;99.90
2453;DHT22;63678;47.994;7.854;2023-07-31T06:04:14;18.30;99.90
2453;DHT22;63678;47.994;7.854;2023-07-31T06:06:46;18.40;99.90
2453;DHT22;63678;47.994;7.854;2023-07-31T06:16:58;18.70;99.90
2453;DHT22;63678;47.994;7.854;2023-07-31T06:22:03;18.80;99.90
2453;DHT22;63678;47.994;7.854;2023-07-31T06:24:36;18.90;99.90
2453;DHT22;63678;47.994;7.854;2023-07-31T06:27:08;18.80;99.90
2453;DHT22;63678;47.994;7.854;2023-07-31T06:29:42;18.80;99.90
2453;DHT22;63678;47.994;7.854;2023-07-31T06:32:14;18.80;99.90
2453;DHT22;63678;47.994;7.854;2023-07-31T06:34:47;18.80;99.90
2453;DHT22;63678;47.994;7.854;2023-07-31T06:37:19;18.90;99.90
2453;DHT22;63678;47.994;7.854;2023-07-31T06:39:51;19.10;99.90
2453;DHT22;63678;47.994;7.854;2023-07-31T06:42:24;19.10;99.90
2453;DHT22;63678;47.994;7.854;2023-07-31T06:47:29;19.00;99.90
2453;DHT22;63678;47.994;7.854;2023-07-31T06:50:02;19.00;99.90
2453;DHT22;63678;47.994;7.854;2023-07-31T06:52:34;19.10;99.90
2453;DHT22;63678;47.994;7.854;2023-07-31T06:55:18;19.10;99.90
2453;DHT22;63678;47.994;7.854;2023-07-31T06:57:53;19.20;99.90
2453;DHT22;63678;47.994;7.854;2023-07-31T07:00:26;19.20;99.90
2453;DHT22;63678;47.994;7.854;2023-07-31T07:02:59;19.40;99.90
2453;DHT22;63678;47.994;7.854;2023-07-31T07:05:31;20.00;99.90
2453;DHT22;63678;47.994;7.854;2023-07-31T07:08:04;20.10;99.90
2453;DHT22;63678;47.994;7.854;2023-07-31T07:10:37;19.80;99.90
2453;DHT22;63678;47.994;7.854;2023-07-31T07:13:09;19.80;99.90
2453;DHT22;63678;47.994;7.854;2023-07-31T07:15:41;19.90;99.90
2453;DHT22;63678;47.994;7.854;2023-07-31T07:18:14;20.10;99.90
2453;DHT22;63678;47.994;7.854;2023-07-31T07:20:49;20.10;99.90
2453;DHT22;63678;47.994;7.854;2023-07-31T07:23:22;21.20;99.90
2453;DHT22;63678;47.994;7.854;2023-07-31T07:25:55;21.60;99.90
2453;DHT22;63678;47.994;7.854;2023-07-31T07:28:27;21.70;99.90
2453;DHT22;63678;47.994;7.854;2023-07-31T07:31:00;21.70;99.90
2453;DHT22;63678;47.994;7.854;2023-07-31T07:33:33;21.60;99.90
2453;DHT22;63678;47.994;7.854;2023-07-31T07:36:06;21.60;99.90
2453;DHT22;63678;47.994;7.854;2023-07-31T07:38:41;22.10;99.90
2453;DHT22;63678;47.994;7.854;2023-07-31T07:41:14;22.50;99.90
2453;DHT22;63678;47.994;7.854;2023-07-31T07:43:47;22.30;99.90
2453;DHT22;63678;47.994;7.854;2023-07-31T07:46:19;23.10;99.90
2453;DHT22;63678;47.994;7.854;2023-07-31T07:48:52;23.30;99.90
2453;DHT22;63678;47.994;7.854;2023-07-31T07:51:25;24.00;99.90
2453;DHT22;63678;47.994;7.854;2023-07-31T07:53:58;23.90;99.90
2453;DHT22;63678;47.994;7.854;2023-07-31T07:56:32;23.90;99.90
2453;DHT22;63678;47.994;7.854;2023-07-31T07:59:05;24.60;99.90
2453;DHT22;63678;47.994;7.854;2023-07-31T08:01:38;22.30;99.90
2453;DHT22;63678;47.994;7.854;2023-07-31T08:04:10;22.30;99.90
2453;DHT22;63678;47.994;7.854;2023-07-31T08:06:43;22.00;99.90
2453;DHT22;63678;47.994;7.854;2023-07-31T08:09:15;22.80;99.90
2453;DHT22;63678;47.994;7.854;2023-07-31T08:11:47;21.90;99.90
2453;DHT22;63678;47.994;7.854;2023-07-31T08:14:19;21.90;99.90
2453;DHT22;63678;47.994;7.854;2023-07-31T08:19:24;21.80;99.90
2453;DHT22;63678;47.994;7.854;2023-07-31T08:21:57;21.80;99.90
2453;DHT22;63678;47.994;7.854;2023-07-31T08:24:29;22.20;99.90
2453;DHT22;63678;47.994;7.854;2023-07-31T08:27:02;22.40;99.90
2453;DHT22;63678;47.994;7.854;2023-07-31T08:29:35;23.50;99.90
2453;DHT22;63678;47.994;7.854;2023-07-31T08:32:08;24.60;99.90
2453;DHT22;63678;47.994;7.854;2023-07-31T08:34:41;25.30;99.90
2453;DHT22;63678;47.994;7.854;2023-07-31T08:37:13;26.00;99.90
2453;DHT22;63678;47.994;7.854;2023-07-31T08:39:46;26.40;99.90
2453;DHT22;63678;47.994;7.854;2023-07-31T08:42:18;25.50;99.90
2453;DHT22;63678;47.994;7.854;2023-07-31T08:44:52;24.50;99.90
2453;DHT22;63678;47.994;7.854;2023-07-31T08:47:26;24.70;99.90
2453;DHT22;63678;47.994;7.854;2023-07-31T08:49:59;24.50;99.90
2453;DHT22;63678;47.994;7.854;2023-07-31T08:52:32;25.00;99.90
2453;DHT22;63678;47.994;7.854;2023-07-31T08:55:06;25.90;99.90
2453;DHT22;63678;47.994;7.854;2023-07-31T08:57:39;25.60;99.90
2453;DHT22;63678;47.994;7.854;2023-07-31T09:00:13;25.40;99.90
2453;DHT22;63678;47.994;7.854;2023-07-31T09:02:51;25.80;99.90
2453;DHT22;63678;47.994;7.854;2023-07-31T09:05:28;27.30;99.90
2453;DHT22;63678;47.994;7.854;2023-07-31T09:08:02;26.80;99.90
2453;DHT22;63678;47.994;7.854;2023-07-31T09:10:35;25.40;99.90
2453;DHT22;63678;47.994;7.854;2023-07-31T09:13:13;25.40;99.90
2453;DHT22;63678;47.994;7.854;2023-07-31T09:15:46;25.00;99.90
2453;DHT22;63678;47.994;7.854;2023-07-31T09:18:19;23.80;99.90
2453;DHT22;63678;47.994;7.854;2023-07-31T09:21:05;23.00;99.90
2453;DHT22;63678;47.994;7.854;2023-07-31T09:23:47;23.30;99.90
2453;DHT22;63678;47.994;7.854;2023-07-31T09:26:34;24.10;99.90
2453;DHT22;63678;47.994;7.854;2023-07-31T09:29:19;24.20;99.90
2453;DHT22;63678;47.994;7.854;2023-07-31T09:31:52;23.90;99.90
2453;DHT22;63678;47.994;7.854;2023-07-31T09:34:38;24.00;99.90
2453;DHT22;63678;47.994;7.854;2023-07-31T09:37:13;24.10;99.90
2453;DHT22;63678;47.994;7.854;2023-07-31T09:39:47;24.10;99.90
2453;DHT22;63678;47.994;7.854;2023-07-31T09:42:26;24.20;99.90
2453;DHT22;63678;47.994;7.854;2023-07-31T09:45:07;24.60;99.90
2453;DHT22;63678;47.994;7.854;2023-07-31T09:47:49;24.60;99.90
2453;DHT22;63678;47.994;7.854;2023-07-31T09:50:24;25.40;99.90
2453;DHT22;63678;47.994;7.854;2023-07-31T09:52:57;24.40;99.90
2453;DHT22;63678;47.994;7.854;2023-07-31T09:55:29;24.60;99.90
2453;DHT22;63678;47.994;7.854;2023-07-31T09:58:05;25.00;99.90
2453;DHT22;63678;47.994;7.854;2023-07-31T10:00:39;24.90;99.90
2453;DHT22;63678;47.994;7.854;2023-07-31T10:03:14;24.00;99.90
2453;DHT22;63678;47.994;7.854;2023-07-31T10:05:55;24.00;99.90
2453;DHT22;63678;47.994;7.854;2023-07-31T10:08:30;24.70;99.90
2453;DHT22;63678;47.994;7.854;2023-07-31T10:11:07;24.70;99.90
2453;DHT22;63678;47.994;7.854;2023-07-31T10:13:42;24.50;99.90
2453;DHT22;63678;47.994;7.854;2023-07-31T10:16:15;24.80;99.90
2453;DHT22;63678;47.994;7.854;2023-07-31T10:18:49;25.00;99.90
2453;DHT22;63678;47.994;7.854;2023-07-31T10:21:22;24.90;99.90
2453;DHT22;63678;47.994;7.854;2023-07-31T10:23:55;24.70;99.90
2453;DHT22;63678;47.994;7.854;2023-07-31T10:26:29;24.90;99.90
2453;DHT22;63678;47.994;7.854;2023-07-31T10:29:05;24.90;99.90
2453;DHT22;63678;47.994;7.854;2023-07-31T10:31:38;24.70;99.90
2453;DHT22;63678;47.994;7.854;2023-07-31T10:34:11;25.00;99.90
2453;DHT22;63678;47.994;7.854;2023-07-31T10:36:44;25.10;99.90
2453;DHT22;63678;47.994;7.854;2023-07-31T10:39:36;24.50;99.90
2453;DHT22;63678;47.994;7.854;2023-07-31T10:42:12;24.30;99.90
2453;DHT22;63678;47.994;7.854;2023-07-31T10:44:46;24.40;99.90
2453;DHT22;63678;47.994;7.854;2023-07-31T10:47:25;23.90;99.90
2453;DHT22;63678;47.994;7.854;2023-07-31T10:50:20;24.30;99.90
2453;DHT22;63678;47.994;7.854;2023-07-31T10:53:32;24.30;99.90
2453;DHT22;63678;47.994;7.854;2023-07-31T10:56:09;24.20;99.90
2453;DHT22;63678;47.994;7.854;2023-07-31T10:58:45;24.20;99.90
2453;DHT22;63678;47.994;7.854;2023-07-31T11:01:18;24.30;99.90
2453;DHT22;63678;47.994;7.854;2023-07-31T11:03:51;23.60;99.90
2453;DHT22;63678;47.994;7.854;2023-07-31T11:06:29;24.10;99.90
2453;DHT22;63678;47.994;7.854;2023-07-31T11:09:02;24.10;99.90
2453;DHT22;63678;47.994;7.854;2023-07-31T11:11:35;24.30;99.90
2453;DHT22;63678;47.994;7.854;2023-07-31T11:14:10;23.90;99.90
2453;DHT22;63678;47.994;7.854;2023-07-31T11:16:42;23.90;99.90
2453;DHT22;63678;47.994;7.854;2023-07-31T11:19:18;23.90;99.90
2453;DHT22;63678;47.994;7.854;2023-07-31T11:21:55;23.70;99.90
2453;DHT22;63678;47.994;7.854;2023-07-31T11:24:28;23.60;99.90
2453;DHT22;63678;47.994;7.854;2023-07-31T11:27:07;23.70;99.90
2453;DHT22;63678;47.994;7.854;2023-07-31T11:29:40;24.20;99.90
2453;DHT22;63678;47.994;7.854;2023-07-31T11:32:16;24.50;99.90
2453;DHT22;63678;47.994;7.854;2023-07-31T11:34:53;24.30;99.90
2453;DHT22;63678;47.994;7.854;2023-07-31T11:37:39;24.30;99.90
2453;DHT22;63678;47.994;7.854;2023-07-31T11:40:15;23.40;99.90
2453;DHT22;63678;47.994;7.854;2023-07-31T11:42:56;23.50;99.90
2453;DHT22;63678;47.994;7.854;2023-07-31T11:45:30;23.50;99.90
2453;DHT22;63678;47.994;7.854;2023-07-31T11:48:03;23.60;99.90
2453;DHT22;63678;47.994;7.854;2023-07-31T11:50:35;23.70;99.90
2453;DHT22;63678;47.994;7.854;2023-07-31T11:53:09;23.90;99.90
2453;DHT22;63678;47.994;7.854;2023-07-31T11:55:41;24.40;99.90
2453;DHT22;63678;47.994;7.854;2023-07-31T11:58:15;24.80;99.90
2453;DHT22;63678;47.994;7.854;2023-07-31T12:00:48;25.10;99.90
2453;DHT22;63678;47.994;7.854;2023-07-31T12:03:25;25.40;99.90
2453;DHT22;63678;47.994;7.854;2023-07-31T12:05:59;25.40;99.90
2453;DHT22;63678;47.994;7.854;2023-07-31T12:08:31;24.80;99.90
2453;DHT22;63678;47.994;7.854;2023-07-31T12:11:05;24.20;99.90
2453;DHT22;63678;47.994;7.854;2023-07-31T12:13:41;25.80;99.90
2453;DHT22;63678;47.994;7.854;2023-07-31T12:16:13;25.20;99.90
2453;DHT22;63678;47.994;7.854;2023-07-31T12:18:49;25.60;99.90
2453;DHT22;63678;47.994;7.854;2023-07-31T12:21:22;25.90;99.90
2453;DHT22;63678;47.994;7.854;2023-07-31T12:23:55;25.00;99.90
2453;DHT22;63678;47.994;7.854;2023-07-31T12:26:34;25.10;99.90
2453;DHT22;63678;47.994;7.854;2023-07-31T12:29:07;25.20;99.90
2453;DHT22;63678;47.994;7.854;2023-07-31T12:31:41;26.70;99.90
2453;DHT22;63678;47.994;7.854;2023-07-31T12:34:16;25.20;99.90
2453;DHT22;63678;47.994;7.854;2023-07-31T12:36:53;25.20;99.90
2453;DHT22;63678;47.994;7.854;2023-07-31T12:39:26;25.80;99.90
2453;DHT22;63678;47.994;7.854;2023-07-31T12:41:58;26.10;99.90
2453;DHT22;63678;47.994;7.854;2023-07-31T12:44:30;26.30;99.90
2453;DHT22;63678;47.994;7.854;2023-07-31T12:47:04;26.20;99.90
2453;DHT22;63678;47.994;7.854;2023-07-31T12:49:36;26.40;99.90
2453;DHT22;63678;47.994;7.854;2023-07-31T12:52:09;25.90;99.90
2453;DHT22;63678;47.994;7.854;2023-07-31T12:54:41;26.00;99.90
2453;DHT22;63678;47.994;7.854;2023-07-31T12:57:14;26.40;99.90
2453;DHT22;63678;47.994;7.854;2023-07-31T12:59:46;26.60;99.90
2453;DHT22;63678;47.994;7.854;2023-07-31T13:02:18;26.60;99.90
2453;DHT22;63678;47.994;7.854;2023-07-31T13:04:53;26.70;99.90
2453;DHT22;63678;47.994;7.854;2023-07-31T13:07:26;26.70;99.90
2453;DHT22;63678;47.994;7.854;2023-07-31T13:09:59;26.40;99.90
2453;DHT22;63678;47.994;7.854;2023-07-31T13:12:31;26.20;99.90
2453;DHT22;63678;47.994;7.854;2023-07-31T13:15:05;25.60;99.90
2453;DHT22;63678;47.994;7.854;2023-07-31T13:17:38;25.60;99.90
2453;DHT22;63678;47.994;7.854;2023-07-31T13:20:13;25.50;99.90
2453;DHT22;63678;47.994;7.854;2023-07-31T13:22:46;25.70;99.90
2453;DHT22;63678;47.994;7.854;2023-07-31T13:25:18;25.50;99.90
2453;DHT22;63678;47.994;7.854;2023-07-31T13:27:51;25.00;99.90
2453;DHT22;63678;47.994;7.854;2023-07-31T13:30:23;25.20;99.90
2453;DHT22;63678;47.994;7.854;2023-07-31T13:32:55;25.30;99.90
2453;DHT22;63678;47.994;7.854;2023-07-31T13:35:28;25.40;99.90
2453;DHT22;63678;47.994;7.854;2023-07-31T13:38:03;25.60;99.90
2453;DHT22;63678;47.994;7.854;2023-07-31T13:40:37;25.60;99.90
2453;DHT22;63678;47.994;7.854;2023-07-31T13:43:09;25.00;99.90
2453;DHT22;63678;47.994;7.854;2023-07-31T13:45:41;25.00;99.90
2453;DHT22;63678;47.994;7.854;2023-07-31T13:48:13;25.40;99.90
2453;DHT22;63678;47.994;7.854;2023-07-31T13:50:45;25.70;99.90
2453;DHT22;63678;47.994;7.854;2023-07-31T13:53:17;25.90;99.90
2453;DHT22;63678;47.994;7.854;2023-07-31T13:55:50;25.60;99.90
2453;DHT22;63678;47.994;7.854;2023-07-31T13:58:22;25.40;99.90
2453;DHT22;63678;47.994;7.854;2023-07-31T14:00:55;25.50;99.90
2453;DHT22;63678;47.994;7.854;2023-07-31T14:03:28;25.80;99.90
2453;DHT22;63678;47.994;7.854;2023-07-31T14:06:00;25.60;99.90
2453;DHT22;63678;47.994;7.854;2023-07-31T14:08:32;25.70;99.90
2453;DHT22;63678;47.994;7.854;2023-07-31T14:11:04;25.70;99.90
2453;DHT22;63678;47.994;7.854;2023-07-31T14:13:36;25.70;99.90
2453;DHT22;63678;47.994;7.854;2023-07-31T14:16:08;25.80;99.90
2453;DHT22;63678;47.994;7.854;2023-07-31T14:18:41;25.50;99.90
2453;DHT22;63678;47.994;7.854;2023-07-31T14:21:14;25.40;99.90
2453;DHT22;63678;47.994;7.854;2023-07-31T14:23:47;25.20;99.90
2453;DHT22;63678;47.994;7.854;2023-07-31T14:26:19;25.20;99.90
2453;DHT22;63678;47.994;7.854;2023-07-31T14:28:51;25.60;99.90
2453;DHT22;63678;47.994;7.854;2023-07-31T14:31:23;25.60;99.90
2453;DHT22;63678;47.994;7.854;2023-07-31T14:33:55;25.70;99.90
2453;DHT22;63678;47.994;7.854;2023-07-31T14:36:29;25.90;99.90
2453;DHT22;63678;47.994;7.854;2023-07-31T14:39:01;25.90;99.90
2453;DHT22;63678;47.994;7.854;2023-07-31T14:41:33;26.20;99.90
2453;DHT22;63678;47.994;7.854;2023-07-31T14:44:06;26.10;99.90
2453;DHT22;63678;47.994;7.854;2023-07-31T14:46:38;26.10;99.90
2453;DHT22;63678;47.994;7.854;2023-07-31T14:49:11;26.10;99.90
2453;DHT22;63678;47.994;7.854;2023-07-31T14:51:43;26.10;99.90
2453;DHT22;63678;47.994;7.854;2023-07-31T14:54:16;26.00;99.90
2453;DHT22;63678;47.994;7.854;2023-07-31T14:56:48;26.00;99.90
2453;DHT22;63678;47.994;7.854;2023-07-31T14:59:20;25.90;99.90
2453;DHT22;63678;47.994;7.854;2023-07-31T15:01:53;26.00;99.90
2453;DHT22;63678;47.994;7.854;2023-07-31T15:04:25;25.50;99.90
2453;DHT22;63678;47.994;7.854;2023-07-31T15:06:58;25.50;99.90
2453;DHT22;63678;47.994;7.854;2023-07-31T15:09:30;25.60;99.90
2453;DHT22;63678;47.994;7.854;2023-07-31T15:12:03;25.60;99.90
2453;DHT22;63678;47.994;7.854;2023-07-31T15:14:35;25.60;99.90
2453;DHT22;63678;47.994;7.854;2023-07-31T15:17:07;25.60;99.90
2453;DHT22;63678;47.994;7.854;2023-07-31T15:19:40;25.60;99.90
2453;DHT22;63678;47.994;7.854;2023-07-31T15:22:12;25.70;99.90
2453;DHT22;63678;47.994;7.854;2023-07-31T15:24:44;25.50;99.90
2453;DHT22;63678;47.994;7.854;2023-07-31T15:27:17;25.60;99.90
2453;DHT22;63678;47.994;7.854;2023-07-31T15:29:49;25.50;99.90
2453;DHT22;63678;47.994;7.854;2023-07-31T15:32:24;25.60;99.90
2453;DHT22;63678;47.994;7.854;2023-07-31T15:34:57;25.80;99.90
2453;DHT22;63678;47.994;7.854;2023-07-31T15:37:30;25.70;99.90
2453;DHT22;63678;47.994;7.854;2023-07-31T15:40:02;25.50;99.90
2453;DHT22;63678;47.994;7.854;2023-07-31T15:42:34;25.60;99.90
2453;DHT22;63678;47.994;7.854;2023-07-31T15:45:11;25.50;99.90
2453;DHT22;63678;47.994;7.854;2023-07-31T15:47:43;25.70;99.90
2453;DHT22;63678;47.994;7.854;2023-07-31T15:50:16;25.80;99.90
2453;DHT22;63678;47.994;7.854;2023-07-31T15:52:49;25.60;99.90
2453;DHT22;63678;47.994;7.854;2023-07-31T15:55:24;25.60;99.90
2453;DHT22;63678;47.994;7.854;2023-07-31T15:57:57;25.60;99.90
2453;DHT22;63678;47.994;7.854;2023-07-31T16:00:29;25.80;99.90
2453;DHT22;63678;47.994;7.854;2023-07-31T16:03:01;25.40;99.90
2453;DHT22;63678;47.994;7.854;2023-07-31T16:05:34;25.40;99.90
2453;DHT22;63678;47.994;7.854;2023-07-31T16:08:09;25.10;99.90
2453;DHT22;63678;47.994;7.854;2023-07-31T16:10:42;24.90;99.90
2453;DHT22;63678;47.994;7.854;2023-07-31T16:13:14;24.90;99.90
2453;DHT22;63678;47.994;7.854;2023-07-31T16:15:46;25.00;99.90
2453;DHT22;63678;47.994;7.854;2023-07-31T16:18:19;24.80;99.90
2453;DHT22;63678;47.994;7.854;2023-07-31T16:20:53;24.70;99.90
2453;DHT22;63678;47.994;7.854;2023-07-31T16:23:26;24.70;99.90
2453;DHT22;63678;47.994;7.854;2023-07-31T16:25:59;24.70;99.90
2453;DHT22;63678;47.994;7.854;2023-07-31T16:28:31;24.70;99.90
2453;DHT22;63678;47.994;7.854;2023-07-31T16:31:03;24.70;99.90
2453;DHT22;63678;47.994;7.854;2023-07-31T16:33:36;24.50;99.90
2453;DHT22;63678;47.994;7.854;2023-07-31T16:36:08;24.60;99.90
2453;DHT22;63678;47.994;7.854;2023-07-31T16:38:41;24.40;99.90
2453;DHT22;63678;47.994;7.854;2023-07-31T16:41:13;24.40;99.90
2453;DHT22;63678;47.994;7.854;2023-07-31T16:43:45;24.40;99.90
2453;DHT22;63678;47.994;7.854;2023-07-31T16:46:18;24.50;99.90
2453;DHT22;63678;47.994;7.854;2023-07-31T16:48:50;24.40;99.90
2453;DHT22;63678;47.994;7.854;2023-07-31T16:51:26;25.20;99.90
2453;DHT22;63678;47.994;7.854;2023-07-31T16:53:58;24.40;99.90
2453;DHT22;63678;47.994;7.854;2023-07-31T16:56:30;26.10;99.90
2453;DHT22;63678;47.994;7.854;2023-07-31T16:59:17;24.30;99.90
2453;DHT22;63678;47.994;7.854;2023-07-31T17:01:50;24.20;99.90
2453;DHT22;63678;47.994;7.854;2023-07-31T17:04:23;24.20;99.90
2453;DHT22;63678;47.994;7.854;2023-07-31T17:06:55;24.10;99.90
2453;DHT22;63678;47.994;7.854;2023-07-31T17:09:28;24.20;99.90
2453;DHT22;63678;47.994;7.854;2023-07-31T17:12:02;24.10;99.90
2453;DHT22;63678;47.994;7.854;2023-07-31T17:14:35;24.20;99.90